Time;durP1;ratioP1;P1;durP2;ratioP2;P2;SDS_P1;SDS_P2;PMS_P1;PMS_P2;Temp;Humidity;BMP_temperature;BMP_pressure;BME280_temperature;BME280_humidity;BME280_pressure;Samples;Min_cycle;Max_cycle;Signal;HPM_P1;HPM_P2
2022/01/24 00:01:06;;;;;;;107.80;47.85;;;;;;;-5.28;100.00;100495.14;2292943;78;22182;-78
2022/01/24 00:04:08;;;;;;;106.70;47.60;;;;;;;-5.32;100.00;100503.30;2292742;78;21112;-78
2022/01/24 00:07:09;;;;;;;91.60;38.05;;;;;;;-5.34;100.00;100510.16;2293026;78;20989;-79
2022/01/24 00:10:15;;;;;;;92.60;37.73;;;;;;;-5.45;100.00;100504.03;2292878;78;21052;-79
2022/01/24 00:16:47;;;;;;;87.42;40.70;;;;;;;-5.62;100.00;100503.57;2292646;78;20966;-79
2022/01/24 00:29:27;;;;;;;90.00;37.65;;;;;;;-5.59;100.00;100500.11;2106894;84;21069;-78
2022/01/24 00:32:28;;;;;;;88.52;38.10;;;;;;;-5.60;100.00;100497.98;2062206;86;21047;-79
2022/01/24 00:35:28;;;;;;;96.30;42.27;;;;;;;-5.64;100.00;100512.98;2062207;86;21014;-79
2022/01/24 00:38:32;;;;;;;81.65;36.75;;;;;;;-5.63;100.00;100520.20;2062067;86;21085;-79
2022/01/24 00:41:39;;;;;;;81.17;36.98;;;;;;;-5.65;100.00;100511.31;2062142;86;21086;-80
2022/01/24 00:57:29;;;;;;;119.02;52.17;;;;;;;-5.92;100.00;100494.08;2086444;80;21065;-78
2022/01/24 01:00:29;;;;;;;98.25;44.30;;;;;;;-5.99;100.00;100491.25;2213020;80;20953;-78
2022/01/24 01:03:30;;;;;;;103.42;42.08;;;;;;;-6.00;100.00;100502.33;2212983;80;20996;-78
2022/01/24 01:06:31;;;;;;;114.08;49.13;;;;;;;-6.06;100.00;100502.84;2213245;80;21538;-77
2022/01/24 01:19:29;;;;;;;88.85;38.95;;;;;;;-6.10;100.00;100502.95;2213022;80;21069;-78
2022/01/24 01:22:30;;;;;;;80.70;36.98;;;;;;;-6.13;100.00;100506.39;2213718;80;21989;-78
2022/01/24 01:25:31;;;;;;;89.30;39.90;;;;;;;-6.14;100.00;100508.53;2233513;78;21123;-78
2022/01/24 01:28:33;;;;;;;88.00;39.20;;;;;;;-6.14;100.00;100507.26;2291980;78;21023;-78
2022/01/24 01:38:29;;;;;;;113.47;52.48;;;;;;;-6.10;100.00;100517.82;2176024;82;21587;-83
2022/01/24 01:54:48;;;;;;;114.20;49.90;;;;;;;-6.46;100.00;100522.36;2175901;82;21006;-83
2022/01/24 01:57:30;;;;;;;106.20;48.05;;;;;;;-6.46;100.00;100524.91;2170705;82;21052;-84
2022/01/24 02:00:31;;;;;;;105.03;48.80;;;;;;;-6.42;100.00;100523.97;2175686;82;20966;-84
2022/01/24 02:03:32;;;;;;;99.07;43.90;;;;;;;-6.48;100.00;100519.84;2175904;81;20985;-84
2022/01/24 02:06:32;;;;;;;91.02;41.02;;;;;;;-6.52;100.00;100527.56;2175806;82;20953;-84
2022/01/24 02:09:34;;;;;;;70.97;35.65;;;;;;;-6.54;100.00;100525.05;2175733;82;21500;-85
2022/01/24 02:12:35;;;;;;;86.57;37.20;;;;;;;-6.53;100.00;100534.38;2175656;82;21021;-84
2022/01/24 02:19:03;;;;;;;72.82;36.48;;;;;;;-6.54;100.00;100531.42;2175676;82;20958;-84
2022/01/24 02:24:54;;;;;;;87.22;39.67;;;;;;;-6.76;100.00;100533.52;2175749;82;21024;-84
2022/01/24 02:27:54;;;;;;;94.58;40.73;;;;;;;-6.98;100.00;100518.18;2173873;82;21073;-83
2022/01/24 02:31:18;;;;;;;86.20;37.38;;;;;;;-7.10;100.00;100526.03;2174740;82;21030;-84
2022/01/24 02:33:59;;;;;;;77.30;34.83;;;;;;;-7.10;100.00;100523.48;2171053;82;21010;-84
2022/01/24 02:37:00;;;;;;;76.62;36.38;;;;;;;-7.14;100.00;100523.95;2175547;82;21012;-84
2022/01/24 02:49:43;;;;;;;81.70;36.35;;;;;;;-7.37;100.00;100522.22;2176056;82;21037;-84
2022/01/24 02:52:44;;;;;;;84.83;38.42;;;;;;;-7.35;100.00;100528.11;2175977;82;20973;-84
2022/01/24 02:55:44;;;;;;;88.40;42.55;;;;;;;-7.32;100.00;100538.23;2175983;82;20997;-84
2022/01/24 02:58:45;;;;;;;88.27;41.10;;;;;;;-7.38;100.00;100538.35;2176223;81;21072;-84
2022/01/24 03:01:46;;;;;;;84.67;40.92;;;;;;;-7.39;100.00;100530.31;2176413;81;21479;-84
2022/01/24 03:04:47;;;;;;;80.10;37.13;;;;;;;-7.30;100.00;100531.02;2176352;82;20953;-83
2022/01/24 03:07:48;;;;;;;86.25;38.25;;;;;;;-7.32;100.00;100536.97;2176049;81;21057;-83
2022/01/24 03:10:48;;;;;;;85.70;39.45;;;;;;;-7.37;100.00;100542.58;2176049;82;21456;-84
2022/01/24 03:13:49;;;;;;;89.75;41.75;;;;;;;-7.52;100.00;100545.73;2176085;81;21060;-83
2022/01/24 03:16:50;;;;;;;88.78;38.70;;;;;;;-7.59;100.00;100540.34;2176091;82;20988;-84
2022/01/24 03:19:51;;;;;;;91.40;40.58;;;;;;;-7.61;100.00;100550.11;2176073;82;20957;-84
2022/01/24 03:22:51;;;;;;;92.85;41.00;;;;;;;-7.65;100.00;100544.67;2176044;81;21529;-83
2022/01/24 03:25:52;;;;;;;89.30;43.85;;;;;;;-7.75;100.00;100545.23;2176128;82;21096;-84
2022/01/24 03:28:53;;;;;;;85.83;41.05;;;;;;;-7.64;100.00;100540.83;2175978;82;21029;-83
2022/01/24 03:31:54;;;;;;;101.18;46.05;;;;;;;-7.51;100.00;100547.41;2175911;82;21028;-83
2022/01/24 03:34:55;;;;;;;115.25;48.75;;;;;;;-7.51;100.00;100552.50;2176082;81;21286;-83
2022/01/24 03:37:56;;;;;;;113.17;53.87;;;;;;;-7.55;100.00;100564.03;2176038;82;21024;-83
2022/01/24 03:40:56;;;;;;;109.20;50.48;;;;;;;-7.65;100.00;100559.94;2176001;82;21496;-84
2022/01/24 03:44:03;;;;;;;111.12;49.63;;;;;;;-7.63;100.00;100562.02;2175923;82;21599;-83
2022/01/24 03:50:01;;;;;;;89.70;40.48;;;;;;;-7.43;100.00;100556.66;2175959;82;21001;-84
2022/01/24 03:53:02;;;;;;;79.72;34.85;;;;;;;-7.37;100.00;100555.30;2176144;82;20973;-83
2022/01/24 03:56:03;;;;;;;90.57;37.98;;;;;;;-7.32;100.00;100562.42;2179749;82;20958;-81
2022/01/24 03:59:03;;;;;;;86.82;37.65;;;;;;;-7.29;100.00;100561.12;2178386;82;21009;-83
2022/01/24 04:02:04;;;;;;;83.25;37.60;;;;;;;-7.28;100.00;100566.62;2176359;82;21049;-84
2022/01/24 04:05:05;;;;;;;82.37;35.98;;;;;;;-7.34;100.00;100561.61;2175733;82;20981;-83
2022/01/24 04:08:06;;;;;;;158.00;57.50;;;;;;;-7.46;100.00;100558.81;2175936;82;21001;-83
2022/01/24 04:11:11;;;;;;;198.82;76.55;;;;;;;-7.46;100.00;100558.38;2175906;82;21049;-86
2022/01/24 04:17:38;;;;;;;165.52;62.30;;;;;;;-7.48;100.00;100561.39;2175817;82;21093;-84
2022/01/24 04:23:57;;;;;;;126.22;54.55;;;;;;;-7.56;100.00;100555.99;2175693;82;21481;-84
2022/01/24 04:26:53;;;;;;;108.70;46.73;;;;;;;-7.52;100.00;100562.71;2175207;82;20977;-83
2022/01/24 04:29:54;;;;;;;135.45;55.67;;;;;;;-7.49;100.00;100563.53;2176082;82;21005;-83
2022/01/24 04:32:54;;;;;;;121.20;52.15;;;;;;;-7.54;100.00;100555.53;2175899;82;20994;-83
2022/01/24 04:35:55;;;;;;;117.00;49.38;;;;;;;-7.56;100.00;100550.91;2176068;82;21077;-83
2022/01/24 04:38:56;;;;;;;101.97;43.35;;;;;;;-7.63;100.00;100558.20;2175806;82;21029;-83
2022/01/24 04:41:59;;;;;;;81.02;37.00;;;;;;;-7.64;100.00;100552.71;2175858;81;20962;-83
2022/01/24 04:45:26;;;;;;;102.50;45.08;;;;;;;-7.64;100.00;100554.82;2176107;82;21024;-83
2022/01/24 04:51:51;;;;;;;78.52;35.80;;;;;;;-7.77;100.00;100549.06;2175908;82;21026;-83
2022/01/24 04:57:30;;;;;;;78.45;36.83;;;;;;;-7.81;100.00;100549.95;2175716;82;21499;-83
2022/01/24 05:00:31;;;;;;;73.05;36.23;;;;;;;-7.77;100.00;100546.52;2175867;82;20966;-83
2022/01/24 05:03:32;;;;;;;88.97;37.35;;;;;;;-7.71;100.00;100548.13;2175700;82;20965;-82
2022/01/24 05:06:33;;;;;;;85.20;41.42;;;;;;;-7.63;100.00;100553.95;2175930;82;20958;-83
2022/01/24 05:09:44;;;;;;;83.35;37.95;;;;;;;-7.56;100.00;100556.83;2175847;82;21057;-82
2022/01/24 05:25:24;;;;;;;97.30;43.38;;;;;;;-7.42;100.00;100577.42;2175957;82;21590;-84
2022/01/24 05:28:24;;;;;;;103.30;43.70;;;;;;;-7.40;100.00;100571.90;2175767;82;20965;-84
2022/01/24 05:31:25;;;;;;;104.55;45.80;;;;;;;-7.43;100.00;100586.76;2176325;81;21538;-84
2022/01/24 05:34:26;;;;;;;104.47;44.42;;;;;;;-7.50;100.00;100583.48;2193133;81;21013;-82
2022/01/24 05:37:27;;;;;;;91.97;41.42;;;;;;;-7.51;100.00;100586.86;2193206;81;21527;-83
2022/01/24 05:40:27;;;;;;;105.10;43.33;;;;;;;-7.45;100.00;100591.03;2183532;81;20989;-84
2022/01/24 05:43:28;;;;;;;97.12;43.00;;;;;;;-7.43;100.00;100597.37;2183249;81;21045;-84
2022/01/24 05:46:29;;;;;;;95.75;42.75;;;;;;;-7.42;100.00;100598.61;2183526;81;21001;-82
2022/01/24 05:49:30;;;;;;;90.97;42.05;;;;;;;-7.44;100.00;100595.26;2183603;81;20965;-83
2022/01/24 05:52:31;;;;;;;96.10;44.67;;;;;;;-7.47;100.00;100592.33;2183493;81;20996;-82
2022/01/24 05:55:32;;;;;;;100.40;43.70;;;;;;;-7.44;100.00;100601.62;2183353;81;20995;-81
2022/01/24 05:58:32;;;;;;;99.83;48.80;;;;;;;-7.39;100.00;100605.39;2183625;81;20992;-88
2022/01/24 06:01:33;;;;;;;129.45;53.68;;;;;;;-7.38;100.00;100614.27;2184542;81;20968;-84
2022/01/24 06:04:34;;;;;;;103.40;47.00;;;;;;;-7.39;100.00;100615.14;2185014;81;21052;-83
2022/01/24 06:07:35;;;;;;;99.05;45.88;;;;;;;-7.56;100.00;100634.44;2184038;81;21013;-85
2022/01/24 06:10:37;;;;;;;104.23;43.95;;;;;;;-7.64;100.00;100624.78;2183392;81;21017;-86
2022/01/24 06:13:39;;;;;;;97.27;43.55;;;;;;;-7.78;100.00;100621.13;2183599;81;20961;-86
2022/01/24 06:16:40;;;;;;;89.77;41.35;;;;;;;-7.88;100.00;100616.17;2183936;81;20995;-86
2022/01/24 06:19:41;;;;;;;101.60;47.05;;;;;;;-7.92;100.00;100619.19;2183471;81;21008;-85
2022/01/24 06:22:41;;;;;;;102.42;45.17;;;;;;;-7.98;100.00;100619.67;2183428;81;20989;-86
2022/01/24 06:25:42;;;;;;;104.17;48.15;;;;;;;-8.04;100.00;100625.69;2183574;81;21077;-86
2022/01/24 06:28:43;;;;;;;119.82;51.37;;;;;;;-8.10;100.00;100623.20;2183238;82;21152;-85
2022/01/24 06:31:44;;;;;;;123.20;54.35;;;;;;;-8.13;100.00;100633.41;2183503;80;20926;-84
2022/01/24 06:34:45;;;;;;;139.62;60.12;;;;;;;-8.16;100.00;100638.52;2182543;81;21038;-86
2022/01/24 06:37:46;;;;;;;141.60;57.65;;;;;;;-8.14;100.00;100632.97;2182884;82;20977;-84
2022/01/24 06:40:47;;;;;;;107.83;48.00;;;;;;;-8.12;100.00;100636.37;2180111;82;20988;-84
2022/01/24 06:43:48;;;;;;;100.35;41.65;;;;;;;-8.09;100.00;100652.85;2179394;82;21048;-83
2022/01/24 06:46:48;;;;;;;121.97;54.27;;;;;;;-8.15;100.00;100647.81;2179616;82;20962;-84
2022/01/24 06:49:49;;;;;;;123.13;49.93;;;;;;;-8.18;100.00;100648.70;2179310;82;21001;-88
2022/01/24 06:52:50;;;;;;;129.60;51.80;;;;;;;-8.14;100.00;100654.15;2151245;82;20998;-87
2022/01/24 06:55:51;;;;;;;118.57;51.20;;;;;;;-8.12;100.00;100657.98;2179209;82;21096;-85
2022/01/24 06:58:52;;;;;;;109.05;47.62;;;;;;;-8.01;100.00;100654.89;2178987;82;21048;-84
2022/01/24 07:01:53;;;;;;;127.12;51.83;;;;;;;-7.78;100.00;100652.08;2179314;82;20954;-89
2022/01/24 07:04:54;;;;;;;113.22;48.75;;;;;;;-7.53;100.00;100658.56;2178989;82;21025;-81
2022/01/24 07:07:56;;;;;;;108.60;48.02;;;;;;;-7.30;100.00;100658.72;2179440;82;20973;-84
2022/01/24 07:10:57;;;;;;;123.55;52.80;;;;;;;-7.18;100.00;100661.93;2179525;82;20969;-86
2022/01/24 07:13:58;;;;;;;137.72;58.60;;;;;;;-7.06;100.00;100658.80;2179481;82;21024;-88
2022/01/24 07:19:59;;;;;;;137.80;61.55;;;;;;;-6.90;100.00;100653.89;2179391;82;21016;-88
2022/01/24 07:23:00;;;;;;;143.17;62.88;;;;;;;-6.78;100.00;100665.16;2179339;82;20918;-88
2022/01/24 07:26:01;;;;;;;129.32;57.43;;;;;;;-6.68;100.00;100659.49;2179199;82;20986;-87
2022/01/24 07:29:02;;;;;;;115.65;52.48;;;;;;;-6.50;100.00;100660.47;2179208;82;21573;-87
2022/01/24 07:32:03;;;;;;;100.20;43.98;;;;;;;-6.45;100.00;100668.90;2179427;82;20934;-88
2022/01/24 07:35:04;;;;;;;90.53;43.25;;;;;;;-6.40;100.00;100663.30;2179374;82;21495;-88
2022/01/24 07:38:05;;;;;;;105.03;45.00;;;;;;;-6.28;100.00;100660.13;2151506;82;21025;-88
2022/01/24 07:41:07;;;;;;;90.15;42.67;;;;;;;-6.22;100.00;100657.45;2179316;82;21056;-87
2022/01/24 07:44:08;;;;;;;85.50;43.87;;;;;;;-6.08;100.00;100652.52;2179718;82;21068;-88
2022/01/24 07:47:08;;;;;;;88.95;42.73;;;;;;;-5.93;100.00;100665.88;2180023;82;21018;-89
2022/01/24 07:50:09;;;;;;;100.92;44.98;;;;;;;-5.75;100.00;100659.95;2179824;82;21025;-83
2022/01/24 07:53:12;;;;;;;75.55;37.13;;;;;;;-5.54;100.00;100661.23;2179826;82;21464;-88
2022/01/24 07:56:12;;;;;;;81.97;43.20;;;;;;;-5.35;100.00;100662.97;2179463;82;20960;-88
2022/01/24 07:59:15;;;;;;;86.30;43.42;;;;;;;-5.21;100.00;100652.48;2179929;82;21044;-90
2022/01/24 08:02:16;;;;;;;84.58;41.75;;;;;;;-5.06;100.00;100661.06;2180693;81;21032;-89
2022/01/24 08:05:16;;;;;;;89.97;41.02;;;;;;;-4.93;100.00;100659.94;2179863;82;20982;-87
2022/01/24 08:08:17;;;;;;;94.45;46.30;;;;;;;-4.82;100.00;100657.13;2181256;82;21015;-82
2022/01/24 08:11:18;;;;;;;90.70;46.88;;;;;;;-4.68;100.00;100654.23;2154485;82;20984;-81
2022/01/24 08:14:19;;;;;;;88.25;45.30;;;;;;;-4.44;100.00;100666.44;2181385;82;20997;-82
2022/01/24 08:17:20;;;;;;;89.45;44.10;;;;;;;-4.22;100.00;100661.61;2180136;82;20966;-88
2022/01/24 08:20:21;;;;;;;79.85;41.15;;;;;;;-4.09;100.00;100659.16;2179660;82;21488;-89
2022/01/24 08:23:22;;;;;;;85.72;44.08;;;;;;;-3.90;100.00;100662.51;2179840;82;21012;-86
2022/01/24 08:26:23;;;;;;;91.15;45.60;;;;;;;-3.65;100.00;100660.13;2179548;82;20985;-87
2022/01/24 08:29:24;;;;;;;88.05;46.45;;;;;;;-3.45;100.00;100653.55;2180041;82;21592;-88
2022/01/24 08:32:25;;;;;;;82.67;42.23;;;;;;;-3.31;100.00;100649.73;2180002;82;21026;-88
2022/01/24 08:35:26;;;;;;;81.87;41.83;;;;;;;-3.21;100.00;100651.14;2180059;82;20997;-88
2022/01/24 08:38:27;;;;;;;86.70;41.98;;;;;;;-3.08;100.00;100642.22;2179853;82;20983;-87
2022/01/24 08:41:40;;;;;;;86.25;44.73;;;;;;;-2.87;100.00;100656.92;2179718;82;20965;-87
2022/01/24 08:47:37;;;;;;;95.42;46.50;;;;;;;-2.53;100.00;100644.77;2181564;82;21045;-83
2022/01/24 08:50:38;;;;;;;78.22;40.58;;;;;;;-2.38;100.00;100642.55;2181042;82;21000;-86
2022/01/24 08:53:39;;;;;;;93.10;46.33;;;;;;;-2.20;100.00;100642.34;2179439;82;22079;-88
2022/01/24 08:56:40;;;;;;;64.65;36.05;;;;;;;-2.06;100.00;100649.14;2179296;82;20984;-86
2022/01/24 08:59:41;;;;;;;58.90;30.65;;;;;;;-1.81;100.00;100641.44;2179563;82;20952;-85
2022/01/24 09:02:41;;;;;;;54.25;30.02;;;;;;;-1.58;100.00;100643.61;2179507;82;21001;-87
2022/01/24 09:05:42;;;;;;;63.25;32.78;;;;;;;-1.41;100.00;100637.41;2179363;81;21005;-85
2022/01/24 09:08:44;;;;;;;48.63;25.62;;;;;;;-1.21;100.00;100639.22;2180999;82;21045;-86
2022/01/24 09:11:45;;;;;;;47.40;24.95;;;;;;;-1.02;100.00;100636.78;2183410;82;21528;-84
2022/01/24 09:14:47;;;;;;;39.20;24.02;;;;;;;-0.88;100.00;100638.38;2182074;82;20997;-85
2022/01/24 09:17:48;;;;;;;45.75;24.90;;;;;;;-0.75;100.00;100655.44;2181426;82;20994;-86
2022/01/24 09:20:50;;;;;;;39.45;23.27;;;;;;;-0.67;100.00;100641.83;2180919;82;21025;-83
2022/01/24 09:23:51;;;;;;;35.17;21.30;;;;;;;-0.54;100.00;100644.77;2180044;82;21057;-85
2022/01/24 09:26:52;;;;;;;33.18;21.37;;;;;;;-0.46;100.00;100646.09;2179647;82;21024;-85
2022/01/24 09:29:52;;;;;;;35.58;21.50;;;;;;;-0.36;100.00;100634.55;2179599;82;21000;-86
2022/01/24 09:32:53;;;;;;;40.48;24.63;;;;;;;-0.23;100.00;100629.72;2180329;82;21012;-87
2022/01/24 09:35:59;;;;;;;40.25;22.93;;;;;;;-0.13;100.00;100630.99;2184828;81;20999;-88
2022/01/24 09:38:57;;;;;;;44.98;25.00;;;;;;;-0.03;100.00;100641.73;2183582;81;20973;-88
2022/01/24 09:41:57;;;;;;;42.55;25.72;;;;;;;0.11;100.00;100626.54;2183975;81;21040;-88
2022/01/24 09:44:58;;;;;;;50.15;29.75;;;;;;;0.30;100.00;100627.02;2183688;81;21476;-88
2022/01/24 09:47:59;;;;;;;46.85;28.32;;;;;;;0.41;100.00;100624.80;2183638;81;21056;-87
2022/01/24 09:51:00;;;;;;;48.45;29.00;;;;;;;0.52;100.00;100621.28;2183756;81;21056;-88
2022/01/24 09:54:03;;;;;;;46.55;25.20;;;;;;;0.64;100.00;100611.72;2183499;81;21014;-88
2022/01/24 09:57:03;;;;;;;50.50;28.38;;;;;;;0.74;100.00;100615.54;2183455;81;21600;-88
2022/01/24 10:00:04;;;;;;;49.53;26.95;;;;;;;0.76;100.00;100614.17;2183457;81;21060;-88
2022/01/24 10:03:05;;;;;;;42.08;26.02;;;;;;;0.94;100.00;100613.77;2183511;81;20942;-88
2022/01/24 10:06:06;;;;;;;34.15;20.82;;;;;;;0.96;100.00;100618.39;2184121;81;21024;-88
2022/01/24 10:09:06;;;;;;;38.05;23.60;;;;;;;1.00;100.00;100613.00;2183430;81;21013;-89
2022/01/24 10:12:13;;;;;;;36.05;22.07;;;;;;;1.16;100.00;100614.41;2183754;81;20985;-87
2022/01/24 10:18:29;;;;;;;46.23;28.52;;;;;;;1.36;100.00;100610.86;2183511;81;21726;-87
2022/01/24 10:21:30;;;;;;;58.92;32.35;;;;;;;1.41;100.00;100614.06;2183442;81;21024;-87
2022/01/24 10:24:31;;;;;;;43.23;26.52;;;;;;;1.49;100.00;100614.98;2184044;81;21013;-86
2022/01/24 10:27:32;;;;;;;51.70;30.92;;;;;;;1.56;100.00;100608.16;2184760;81;21048;-85
2022/01/24 10:30:33;;;;;;;43.23;26.77;;;;;;;1.64;100.00;100596.13;2184550;81;20926;-87
2022/01/24 10:33:34;;;;;;;42.88;26.20;;;;;;;1.67;100.00;100595.53;2183429;81;21224;-84
2022/01/24 10:36:35;;;;;;;43.75;25.65;;;;;;;1.64;100.00;100584.50;2180364;82;21041;-87
2022/01/24 10:42:52;;;;;;;43.05;25.17;;;;;;;1.66;100.00;100596.91;2180085;82;20989;-83
2022/01/24 10:45:45;;;;;;;41.88;25.40;;;;;;;1.70;100.00;100588.08;2177823;82;21583;-86
2022/01/24 10:48:47;;;;;;;44.53;26.62;;;;;;;1.75;100.00;100573.20;2179806;82;20996;-85
2022/01/24 10:51:49;;;;;;;41.77;23.62;;;;;;;1.89;100.00;100568.14;2179651;82;20956;-88
2022/01/24 10:54:50;;;;;;;42.38;25.60;;;;;;;1.97;100.00;100567.75;2179326;82;21103;-87
2022/01/24 10:57:51;;;;;;;40.28;23.47;;;;;;;1.98;100.00;100565.53;2179328;82;20961;-83
2022/01/24 11:00:53;;;;;;;38.73;24.07;;;;;;;1.94;100.00;100555.83;2179297;82;20981;-84
2022/01/24 11:03:54;;;;;;;38.20;21.50;;;;;;;1.93;100.00;100565.79;2179652;82;21081;-88
2022/01/24 11:06:55;;;;;;;39.88;24.60;;;;;;;2.04;100.00;100564.39;2179065;82;21060;-86
2022/01/24 11:09:56;;;;;;;35.17;21.00;;;;;;;2.05;100.00;100562.19;2179267;82;21084;-88
2022/01/24 11:12:57;;;;;;;32.00;19.30;;;;;;;2.08;100.00;100558.97;2151475;82;20950;-88
2022/01/24 11:15:58;;;;;;;30.35;20.10;;;;;;;2.06;100.00;100560.80;2179286;82;21032;-88
2022/01/24 11:19:01;;;;;;;29.82;16.75;;;;;;;2.09;100.00;100565.80;2179197;82;21021;-87
2022/01/24 11:22:04;;;;;;;30.00;18.87;;;;;;;2.19;100.00;100564.40;2179651;82;21012;-84
2022/01/24 11:25:07;;;;;;;32.75;20.12;;;;;;;2.18;100.00;100564.02;2180476;82;21088;-87
2022/01/24 11:28:07;;;;;;;32.98;19.92;;;;;;;2.28;100.00;100561.78;2179259;82;21012;-86
2022/01/24 11:31:08;;;;;;;29.12;17.82;;;;;;;2.31;100.00;100559.05;2179370;82;21025;-88
2022/01/24 11:34:08;;;;;;;27.90;16.80;;;;;;;2.44;100.00;100561.34;2181118;82;21009;-87
2022/01/24 11:37:09;;;;;;;23.05;16.50;;;;;;;2.50;100.00;100569.24;2184579;81;20992;-89
2022/01/24 11:40:10;;;;;;;29.02;17.37;;;;;;;2.41;100.00;100552.47;2183943;81;21001;-86
2022/01/24 11:43:11;;;;;;;26.42;17.15;;;;;;;2.40;100.00;100557.73;2183822;81;21025;-85
2022/01/24 11:46:12;;;;;;;25.02;15.85;;;;;;;2.45;100.00;100555.71;2188285;81;20973;-83
2022/01/24 11:49:13;;;;;;;30.05;17.87;;;;;;;2.46;100.00;100542.70;2185830;81;21021;-84
2022/01/24 11:52:14;;;;;;;25.10;16.48;;;;;;;2.47;100.00;100552.58;2184102;81;21033;-89
2022/01/24 11:55:17;;;;;;;24.77;16.35;;;;;;;2.49;100.00;100545.59;2183777;81;21003;-90
2022/01/24 11:58:17;;;;;;;28.87;16.73;;;;;;;2.44;100.00;100547.58;2184321;81;20985;-85
2022/01/24 12:01:19;;;;;;;28.50;17.62;;;;;;;2.43;100.00;100536.87;2184412;81;21020;-87
2022/01/24 12:04:20;;;;;;;27.20;17.73;;;;;;;2.49;100.00;100535.25;2185078;81;21039;-88
2022/01/24 12:07:21;;;;;;;26.95;16.75;;;;;;;2.57;100.00;100539.55;2184233;81;20922;-87
2022/01/24 12:10:22;;;;;;;24.35;16.73;;;;;;;2.59;100.00;100533.83;2183865;81;21048;-87
2022/01/24 12:13:36;;;;;;;26.27;16.95;;;;;;;2.64;100.00;100534.84;2184357;81;21493;-85
2022/01/24 12:16:31;;;;;;;28.27;17.07;;;;;;;2.75;100.00;100525.59;2183143;81;20972;-86
2022/01/24 12:19:34;;;;;;;26.77;16.80;;;;;;;2.72;100.00;100526.20;2183509;81;21496;-88
2022/01/24 12:22:35;;;;;;;25.88;16.42;;;;;;;2.74;100.00;100516.60;2183910;81;21355;-87
2022/01/24 12:25:35;;;;;;;26.27;17.60;;;;;;;2.64;100.00;100524.04;2184069;81;21032;-88
2022/01/24 12:28:36;;;;;;;27.48;16.82;;;;;;;2.70;100.00;100527.59;2184293;81;20953;-87
2022/01/24 12:31:37;;;;;;;21.70;14.73;;;;;;;2.90;100.00;100532.94;2184337;81;21052;-88
2022/01/24 12:34:38;;;;;;;28.25;17.50;;;;;;;2.73;100.00;100527.88;2181621;80;21080;-86
2022/01/24 12:37:39;;;;;;;22.05;16.17;;;;;;;2.76;100.00;100524.67;2179642;82;21422;-87
2022/01/24 12:40:40;;;;;;;25.92;15.50;;;;;;;2.91;100.00;100526.84;2179307;82;21012;-87
2022/01/24 12:43:54;;;;;;;27.73;17.87;;;;;;;2.78;100.00;100519.41;2179156;82;21549;-87
2022/01/24 12:46:43;;;;;;;33.92;19.02;;;;;;;2.77;100.00;100521.16;2176298;82;21088;-86
2022/01/24 12:49:44;;;;;;;28.65;16.75;;;;;;;2.67;100.00;100518.72;2179192;82;21065;-87
2022/01/24 12:52:49;;;;;;;22.75;16.25;;;;;;;2.83;100.00;100518.24;2181187;81;21009;-88
2022/01/24 12:55:48;;;;;;;24.72;16.25;;;;;;;2.79;100.00;100516.73;2180125;82;20992;-88
2022/01/24 12:58:49;;;;;;;29.77;18.45;;;;;;;2.52;100.00;100513.92;2180334;82;20989;-88
2022/01/24 13:01:52;;;;;;;33.20;19.65;;;;;;;2.23;100.00;100515.98;2180487;82;20945;-84
2022/01/24 13:04:52;;;;;;;32.35;19.80;;;;;;;1.85;100.00;100505.10;2179562;82;21039;-87
2022/01/24 13:07:53;;;;;;;34.92;20.75;;;;;;;1.65;100.00;100506.98;2179694;82;21072;-88
2022/01/24 13:10:54;;;;;;;35.03;20.57;;;;;;;1.56;100.00;100507.91;2179566;82;20977;-90
2022/01/24 13:13:55;;;;;;;35.70;18.52;;;;;;;1.66;100.00;100502.65;2179285;82;20980;-91
2022/01/24 13:23:35;;;;;;;32.08;19.05;;;;;;;1.40;100.00;100506.56;2179901;82;21037;-92
2022/01/24 13:26:38;;;;;;;34.78;20.12;;;;;;;1.34;100.00;100499.95;2179303;82;21021;-87
2022/01/24 13:29:39;;;;;;;32.42;19.45;;;;;;;1.29;100.00;100498.53;2179461;82;21097;-89
2022/01/24 13:32:40;;;;;;;35.30;21.45;;;;;;;1.24;100.00;100494.04;2179406;82;21012;-87
2022/01/24 13:35:40;;;;;;;29.65;17.55;;;;;;;1.22;100.00;100491.55;2178696;82;21558;-87
2022/01/24 13:38:41;;;;;;;32.45;18.48;;;;;;;1.23;100.00;100493.66;2178993;82;20985;-86
2022/01/24 13:41:42;;;;;;;31.60;19.73;;;;;;;1.18;100.00;100487.88;2179222;82;21048;-87
2022/01/24 13:44:43;;;;;;;36.33;19.70;;;;;;;1.13;100.00;100485.55;2179026;82;21013;-86
2022/01/24 13:47:44;;;;;;;34.67;21.07;;;;;;;1.10;100.00;100487.84;2179256;82;21023;-87
2022/01/24 13:50:44;;;;;;;40.25;22.30;;;;;;;1.09;100.00;100490.47;2178977;82;20977;-85
2022/01/24 13:53:45;;;;;;;45.05;22.93;;;;;;;1.11;100.00;100494.66;2179171;82;20992;-86
2022/01/24 13:56:46;;;;;;;42.70;24.82;;;;;;;1.18;100.00;100495.63;2179116;82;20985;-85
2022/01/24 13:59:47;;;;;;;38.40;21.52;;;;;;;1.21;100.00;100489.05;2178995;82;20962;-87
2022/01/24 14:02:50;;;;;;;38.85;22.37;;;;;;;1.18;100.00;100493.88;2179392;82;21004;-87
2022/01/24 14:05:51;;;;;;;37.88;23.20;;;;;;;1.16;100.00;100494.87;2179275;82;21555;-87
2022/01/24 14:08:52;;;;;;;39.40;23.02;;;;;;;1.09;100.00;100497.75;2151421;82;21950;-87
2022/01/24 14:11:53;;;;;;;39.10;22.60;;;;;;;1.10;100.00;100494.28;2179250;82;21037;-87
2022/01/24 14:14:59;;;;;;;41.75;24.23;;;;;;;1.07;100.00;100498.75;2179548;82;21556;-84
2022/01/24 14:21:18;;;;;;;51.85;27.07;;;;;;;1.00;100.00;100490.47;2180674;82;21109;-88
2022/01/24 14:24:18;;;;;;;47.30;25.60;;;;;;;0.93;100.00;100490.41;2179710;82;21136;-89
2022/01/24 14:27:19;;;;;;;53.45;29.07;;;;;;;0.82;100.00;100488.78;2180284;82;21025;-85
2022/01/24 14:30:21;;;;;;;45.98;26.68;;;;;;;0.78;100.00;100488.57;2179871;82;21048;-88
2022/01/24 14:33:22;;;;;;;48.23;26.10;;;;;;;0.78;100.00;100480.83;2179239;82;21008;-87
2022/01/24 14:36:23;;;;;;;52.67;26.85;;;;;;;0.74;100.00;100476.75;2182982;81;21077;-87
2022/01/24 14:39:24;;;;;;;52.98;28.42;;;;;;;0.72;100.00;100479.83;2183519;81;21534;-88
2022/01/24 14:42:43;;;;;;;50.60;24.90;;;;;;;0.70;100.00;100481.66;2183612;81;21336;-86
2022/01/24 14:45:27;;;;;;;52.95;27.98;;;;;;;0.68;100.00;100484.77;2180807;81;21064;-85
2022/01/24 14:48:28;;;;;;;45.08;23.70;;;;;;;0.66;100.00;100476.28;2183626;82;21028;-87
2022/01/24 14:51:30;;;;;;;48.02;24.80;;;;;;;0.59;100.00;100471.03;2184450;81;21489;-88
2022/01/24 14:54:32;;;;;;;41.20;23.42;;;;;;;0.52;100.00;100479.05;2184217;81;20984;-87
2022/01/24 14:57:33;;;;;;;49.00;24.65;;;;;;;0.46;100.00;100471.63;2183542;82;21093;-88
2022/01/24 15:00:34;;;;;;;48.20;25.32;;;;;;;0.46;100.00;100476.78;2183580;82;21009;-87
2022/01/24 15:03:35;;;;;;;53.38;28.23;;;;;;;0.44;100.00;100474.70;2183523;81;21513;-87
2022/01/24 15:06:36;;;;;;;48.60;25.95;;;;;;;0.41;100.00;100480.47;2183401;82;21044;-87
2022/01/24 15:09:39;;;;;;;52.55;26.20;;;;;;;0.34;100.00;100476.05;2183737;81;21552;-87
2022/01/24 15:12:46;;;;;;;45.45;25.80;;;;;;;0.26;100.00;100471.25;2183609;81;20992;-88
2022/01/24 15:15:56;;;;;;;46.55;26.20;;;;;;;0.21;100.00;100472.39;2182084;82;21100;-88
2022/01/24 15:25:29;;;;;;;50.05;26.37;;;;;;;-0.03;100.00;100454.56;2183447;82;20997;-86
2022/01/24 15:28:26;;;;;;;60.17;28.40;;;;;;;-0.05;100.00;100449.95;2182773;81;21020;-87
2022/01/24 15:31:27;;;;;;;60.80;31.02;;;;;;;-0.09;100.00;100445.85;2184273;82;21045;-87
2022/01/24 15:34:28;;;;;;;58.20;30.15;;;;;;;-0.11;100.00;100439.08;2156326;81;21101;-87
2022/01/24 15:37:29;;;;;;;58.25;31.05;;;;;;;-0.15;100.00;100439.69;2075174;86;21028;-85
2022/01/24 15:40:31;;;;;;;64.40;34.98;;;;;;;-0.19;100.00;100433.44;2165053;82;21025;-84
2022/01/24 15:43:53;;;;;;;61.55;32.20;;;;;;;-0.23;100.00;100440.94;2165271;82;21017;-87